createdAt,value
2022-10-03T00:00:38.753Z,102165.72
2022-10-03T00:05:54.941Z,102170.81
2022-10-03T00:11:10.520Z,102169.78
2022-10-03T00:16:25.574Z,102178.94
2022-10-03T00:21:40.925Z,102184.53
2022-10-03T00:26:56.848Z,102197.72
2022-10-03T00:32:12.493Z,102203.28
2022-10-03T00:37:27.817Z,102206.34
2022-10-03T00:42:43.577Z,102203.78
2022-10-03T00:47:59.562Z,102201.72
2022-10-03T00:53:14.466Z,102203.50
2022-10-03T00:58:29.831Z,102208.84
2022-10-03T01:03:45.493Z,102207.81
2022-10-03T01:09:00.504Z,102217.22
2022-10-03T01:14:15.489Z,102218.75
2022-10-03T01:19:30.526Z,102227.59
2022-10-03T01:24:45.788Z,102233.19
2022-10-03T01:30:01.508Z,102241.56
2022-10-03T01:35:16.554Z,102240.81
2022-10-03T01:40:31.788Z,102235.22
2022-10-03T01:45:47.463Z,102232.44
2022-10-03T01:51:02.474Z,102240.53
2022-10-03T01:56:18.052Z,102240.53
2022-10-03T02:01:33.541Z,102236.19
2022-10-03T02:06:48.493Z,102240.25
2022-10-03T02:12:03.534Z,102251.41
2022-10-03T02:17:18.783Z,102247.13
2022-10-03T02:22:34.475Z,102251.16
2022-10-03T02:27:49.583Z,102254.44
2022-10-03T02:33:04.558Z,102242.00
2022-10-03T02:38:19.472Z,102240.97
2022-10-03T02:43:34.513Z,102246.81
2022-10-03T02:48:49.489Z,102250.09
2022-10-03T02:54:04.495Z,102253.91
2022-10-03T02:59:19.539Z,102249.34
2022-10-03T03:04:34.747Z,102251.09
2022-10-03T03:09:50.517Z,102262.25
2022-10-03T03:15:05.586Z,102260.72
2022-10-03T03:20:20.533Z,102259.22
2022-10-03T03:25:35.488Z,102265.06
2022-10-03T03:30:51.814Z,102262.78
2022-10-03T03:36:07.510Z,102273.19
2022-10-03T03:41:22.563Z,102285.06
2022-10-03T03:46:37.498Z,102275.88
2022-10-03T03:51:52.784Z,102275.84
2022-10-03T03:57:08.979Z,102269.75
2022-10-03T04:02:24.545Z,102271.22
2022-10-03T04:07:40.569Z,102273.44
2022-10-03T04:12:55.522Z,102268.09
2022-10-03T04:18:10.919Z,102267.56
2022-10-03T04:23:26.488Z,102272.09
2022-10-03T04:28:41.913Z,102262.69
2022-10-03T04:33:57.912Z,102270.50
2022-10-03T04:39:13.873Z,102280.16
2022-10-03T04:44:29.856Z,102285.94
2022-10-03T04:49:45.520Z,102292.78
2022-10-03T04:55:00.515Z,102296.56
2022-10-03T05:00:15.807Z,102301.09
2022-10-03T05:05:31.503Z,102289.66
2022-10-03T05:10:46.491Z,102294.22
2022-10-03T05:16:01.504Z,102305.09
2022-10-03T05:21:16.487Z,102302.00
2022-10-03T05:26:46.827Z,102299.44
2022-10-03T05:32:02.559Z,102309.06
2022-10-03T05:37:17.513Z,102308.75
2022-10-03T05:42:32.575Z,102309.00
2022-10-03T05:47:47.775Z,102309.00
2022-10-03T05:53:03.509Z,102311.53
2022-10-03T05:58:18.570Z,102325.91
2022-10-03T06:03:33.542Z,102324.41
2022-10-03T06:08:48.586Z,102328.94
2022-10-03T06:14:04.548Z,102333.72
2022-10-03T06:19:20.184Z,102333.44
2022-10-03T06:24:35.521Z,102333.94
2022-10-03T06:29:50.853Z,102337.22
2022-10-03T06:35:06.615Z,102336.47
2022-10-03T06:40:21.929Z,102338.47
2022-10-03T06:45:37.496Z,102348.09
2022-10-03T06:50:52.987Z,102343.03
2022-10-03T06:56:08.829Z,102348.28
2022-10-03T07:01:24.994Z,102350.31
2022-10-03T07:06:40.834Z,102357.91
2022-10-03T07:11:56.508Z,102354.38
2022-10-03T07:17:11.639Z,102358.41
2022-10-03T07:22:26.362Z,102366.00
2022-10-03T07:27:41.557Z,102361.69
2022-10-03T07:32:56.572Z,102368.50
2022-10-03T07:38:11.517Z,102376.09
2022-10-03T07:43:26.509Z,102377.34
2022-10-03T07:48:41.553Z,102382.91
2022-10-03T07:53:56.517Z,102392.81
2022-10-03T07:59:11.914Z,102398.09
2022-10-03T08:04:27.614Z,102400.88
2022-10-03T08:09:42.558Z,102403.66
2022-10-03T08:14:57.580Z,102395.03
2022-10-03T08:20:12.824Z,102394.28
2022-10-03T08:25:28.525Z,102404.16
2022-10-03T08:30:43.542Z,102403.41
2022-10-03T08:35:58.521Z,102400.63
2022-10-03T08:41:13.530Z,102388.69
2022-10-03T08:46:28.672Z,102378.31
2022-10-03T08:51:43.535Z,102385.41
2022-10-03T08:56:58.523Z,102400.63
2022-10-03T09:02:13.924Z,102408.97
2022-10-03T09:07:30.476Z,102403.41
2022-10-03T09:12:45.533Z,102410.22
2022-10-03T09:18:00.674Z,102409.44
2022-10-03T09:23:15.529Z,102413.00
2022-10-03T09:28:30.533Z,102404.66
2022-10-03T09:33:45.594Z,102401.88
2022-10-03T09:39:00.536Z,102389.47
2022-10-03T09:44:15.596Z,102389.47
2022-10-03T09:49:31.032Z,102381.13
2022-10-03T09:54:46.546Z,102382.63
2022-10-03T10:00:01.562Z,102388.97
2022-10-03T10:05:20.520Z,102386.94
2022-10-03T10:10:35.521Z,102386.47
2022-10-03T10:15:50.609Z,102382.91
2022-10-03T10:21:05.524Z,102382.91
2022-10-03T10:26:20.552Z,102390.00
2022-10-03T10:31:35.617Z,102387.22
2022-10-03T10:36:50.581Z,102391.56
2022-10-03T10:42:05.887Z,102388.28
2022-10-03T10:47:21.515Z,102388.53
2022-10-03T10:52:36.538Z,102387.28
2022-10-03T10:57:51.550Z,102382.03
2022-10-03T11:03:06.528Z,102380.94
2022-10-03T11:08:21.646Z,102386.81
2022-10-03T11:13:36.935Z,102385.09
2022-10-03T11:18:52.533Z,102385.38
2022-10-03T11:24:07.828Z,102388.16
2022-10-03T11:29:23.572Z,102388.91
2022-10-03T11:34:38.580Z,102379.28
2022-10-03T11:39:53.629Z,102371.69
2022-10-03T11:45:08.520Z,102378.84
2022-10-03T11:50:23.370Z,102371.69
2022-10-03T11:55:38.886Z,102369.97
2022-10-03T12:00:54.551Z,102365.16
2022-10-03T12:06:09.563Z,102367.94
2022-10-03T12:11:24.829Z,102354.53
2022-10-03T12:16:40.581Z,102364.91
2022-10-03T12:21:55.583Z,102357.00
2022-10-03T12:27:10.567Z,102347.09
2022-10-03T12:32:25.366Z,102347.38
2022-10-03T12:37:40.554Z,102347.66
2022-10-03T12:42:55.827Z,102349.19
2022-10-03T12:48:11.546Z,102346.41
2022-10-03T12:53:26.817Z,102341.59
2022-10-03T12:58:42.575Z,102338.81
2022-10-03T13:03:57.872Z,102332.00
2022-10-03T13:09:14.565Z,102327.44
2022-10-03T13:14:29.544Z,102321.88
2022-10-03T13:19:44.528Z,102331.78
2022-10-03T13:25:00.577Z,102330.03
2022-10-03T13:30:15.613Z,102322.94
2022-10-03T13:35:30.959Z,102316.63
2022-10-03T13:40:46.334Z,102312.06
2022-10-03T13:46:02.473Z,102307.25
2022-10-03T13:51:17.338Z,102310.81
2022-10-03T13:56:32.555Z,102308.75
2022-10-03T14:01:47.576Z,102307.50
2022-10-03T14:07:02.291Z,102306.28
2022-10-03T14:12:24.814Z,102295.91
2022-10-03T14:17:52.582Z,102302.97
2022-10-03T14:23:07.597Z,102291.84
2022-10-03T14:28:22.753Z,102282.22
2022-10-03T14:33:37.570Z,102282.22
2022-10-03T14:38:52.864Z,102274.63
2022-10-03T14:44:13.381Z,102260.69
2022-10-03T14:55:03.560Z,102270.56
2022-10-03T15:00:18.852Z,102275.38
2022-10-03T15:05:34.892Z,102276.16
2022-10-03T15:10:50.547Z,102280.47
2022-10-03T15:16:05.445Z,102261.69
2022-10-03T15:21:20.613Z,102256.13
2022-10-03T15:26:35.634Z,102247.75
2022-10-03T15:31:50.607Z,102242.97
2022-10-03T15:37:05.589Z,102234.59
2022-10-03T15:42:20.607Z,102244.50
2022-10-03T15:47:35.360Z,102238.94
2022-10-03T15:52:50.964Z,102230.59
2022-10-03T15:58:06.540Z,102234.13
2022-10-03T16:03:21.346Z,102223.75
2022-10-03T16:08:36.597Z,102221.72
2022-10-03T16:13:51.570Z,102211.06
2022-10-03T16:19:06.550Z,102209.03
2022-10-03T16:24:21.676Z,102198.66
2022-10-03T16:29:36.593Z,102201.44
2022-10-03T16:34:51.549Z,102199.44
2022-10-03T16:40:06.342Z,102205.75
2022-10-03T16:45:21.592Z,102201.44
2022-10-03T16:50:38.856Z,102203.72
2022-10-03T16:55:59.903Z,102191.06
2022-10-03T17:01:27.016Z,102185.50
2022-10-03T17:06:42.886Z,102184.22
2022-10-03T17:11:58.608Z,102184.22
2022-10-03T17:17:13.870Z,102191.81
2022-10-03T17:22:29.882Z,102184.72
2022-10-03T17:27:45.922Z,102181.94
2022-10-03T17:33:01.649Z,102183.97
2022-10-03T17:38:44.504Z,102175.59
2022-10-03T17:44:29.922Z,102171.28
2022-10-03T17:49:45.606Z,102163.69
2022-10-03T17:55:00.624Z,102170.47
2022-10-03T18:00:15.559Z,102175.28
2022-10-03T18:05:30.635Z,102180.88
2022-10-03T18:10:45.368Z,102169.72
2022-10-03T18:16:00.615Z,102163.41
2022-10-03T18:21:15.546Z,102171.75
2022-10-03T18:26:30.874Z,102166.69
2022-10-03T18:31:46.710Z,102153.50
2022-10-03T18:37:01.618Z,102158.31
2022-10-03T18:42:16.334Z,102164.66
2022-10-03T18:47:31.576Z,102170.22
2022-10-03T18:52:46.571Z,102161.09
2022-10-03T18:58:01.569Z,102149.94
2022-10-03T19:03:16.607Z,102149.94
2022-10-03T19:08:31.548Z,102143.59
2022-10-03T19:13:49.463Z,102135.25
2022-10-03T19:19:08.882Z,102140.06
2022-10-03T19:24:46.146Z,102129.50
2022-10-03T19:29:59.337Z,102132.63
2022-10-03T19:35:14.879Z,102125.59
2022-10-03T19:40:30.933Z,102131.19
2022-10-03T19:45:46.599Z,102134.00
2022-10-03T19:51:01.568Z,102122.91
2022-10-03T19:56:16.981Z,102124.22
2022-10-03T20:01:32.600Z,102119.88
2022-10-03T20:06:47.619Z,102136.44
2022-10-03T20:12:02.577Z,102126.28
2022-10-03T20:17:17.573Z,102120.47
2022-10-03T20:22:32.336Z,102125.03
2022-10-03T20:27:47.565Z,102124.56
2022-10-03T20:33:02.586Z,102121.53
2022-10-03T20:38:17.857Z,102127.34
2022-10-03T20:43:35.668Z,102131.19
2022-10-03T20:48:54.618Z,102131.19
2022-10-03T20:54:09.660Z,102126.63
2022-10-03T20:59:24.863Z,102134.47
2022-10-03T21:04:40.566Z,102132.72
2022-10-03T21:09:55.565Z,102121.56
2022-10-03T21:15:10.541Z,102119.53
2022-10-03T21:20:25.588Z,102114.22
2022-10-03T21:25:42.181Z,102117.78
2022-10-03T21:30:59.611Z,102109.66
2022-10-03T21:36:14.568Z,102113.97
2022-10-03T21:41:29.618Z,102102.81
2022-10-03T21:46:44.620Z,102091.91
2022-10-03T21:51:59.651Z,102088.13
2022-10-03T21:57:14.591Z,102082.78
2022-10-03T22:02:30.034Z,102074.91
2022-10-03T22:07:45.600Z,102078.22
2022-10-03T22:13:00.927Z,102069.31
2022-10-03T22:18:16.417Z,102062.75
2022-10-03T22:23:31.848Z,102053.63
2022-10-03T22:28:47.917Z,102066.03
2022-10-03T22:34:03.614Z,102051.28
2022-10-03T22:39:18.597Z,102039.38
2022-10-03T22:44:33.575Z,102037.09
2022-10-03T22:49:49.889Z,102027.19
2022-10-03T22:55:06.028Z,102027.19
2022-10-03T23:00:21.581Z,102025.16
2022-10-03T23:05:36.812Z,102023.91
2022-10-03T23:10:52.582Z,102015.53
2022-10-03T23:16:07.638Z,102016.03
2022-10-03T23:21:23.610Z,102012.75
2022-10-03T23:26:38.791Z,102016.78
2022-10-03T23:31:54.915Z,102017.56
2022-10-03T23:37:10.947Z,102019.81
2022-10-03T23:42:26.594Z,102012.75
2022-10-03T23:47:41.887Z,102012.22
2022-10-03T23:52:57.571Z,102014.25
2022-10-03T23:58:12.613Z,102017.03
